This is the latest recevied weather packets stored in our database for station/object VK3HUG-13. If no packets are shown the sender has not sent any weather packets the latest 10 day(s).
| Time | Temp. | Humidity | Pressure | Rain* | Wind** | Luminosity | Snow |
|---|---|---|---|---|---|---|---|
| 1787514306 | 8.33° C | 91% | 1023 hPa | 0 mm | - | - | - |
| 1787511607 | 8.33° C | 91% | 1023 hPa | 0 mm | - | - | - |
| 1787489107 | 8.89° C | 84% | 1025 hPa | 0 mm | - | - | - |
| 1787485506 | 7.78° C | 81% | 1025.2 hPa | 0 mm | - | - | - |
| 1787483707 | 8.33° C | 79% | 1025.1 hPa | 0 mm | - | - | - |
| 1787481907 | 8.89° C | 77% | 1025 hPa | 0 mm | - | - | - |
| 1787481007 | 8.89° C | 77% | 1025 hPa | 0 mm | - | - | - |
| 1787480107 | 8.89° C | 78% | 1025 hPa | 0 mm | - | - | - |
| 1787479207 | 8.89° C | 77% | 1025.1 hPa | 0 mm | - | - | - |
| 1787478306 | 8.89° C | 76% | 1025 hPa | 0 mm | - | - | - |
| 1787477407 | 9.44° C | 76% | 1024.9 hPa | 0 mm | - | - | - |
| 1787476507 | 9.44° C | 76% | 1024.9 hPa | 0 mm | - | - | - |
| 1787475607 | 9.44° C | 76% | 1024.9 hPa | 0 mm | - | - | - |
| 1787474707 | 10° C | 74% | 1024.9 hPa | 0 mm | - | - | - |
| 1787473806 | 10.56° C | 72% | 1024.8 hPa | 0 mm | - | - | - |
| 1787472906 | 10.56° C | 71% | 1024.8 hPa | 0 mm | - | - | - |
| 1787472007 | 11.11° C | 70% | 1024.7 hPa | 0 mm | - | - | - |
| 1787471106 | 11.67° C | 69% | 1024.6 hPa | 0 mm | - | - | - |
| 1787470207 | 12.22° C | 66% | 1024.5 hPa | 0 mm | - | - | - |
| 1787469306 | 12.78° C | 64% | 1024.5 hPa | 0 mm | - | - | - |
| 1787468406 | 13.33° C | 64% | 1024.4 hPa | 0 mm | - | - | - |
| 1787467508 | 13.33° C | 64% | 1024.4 hPa | 0 mm | - | - | - |
| 1787466607 | 13.33° C | 62% | 1024.4 hPa | 0 mm | - | - | - |
| 1787465707 | 13.89° C | 60% | 1024.3 hPa | 0 mm | - | - | - |
| 1787464807 | 13.33° C | 61% | 1024.4 hPa | 0 mm | - | - | - |
* Rain latest hour (hover to see other rain measurements)
** Current wind speed in m/s (hover to see current wind gust speed)